Terminal Aerodrome Forecast
Issued by NWS Missoula, MT

Home | Current Version | Previous Version | Text Only | Print | Product List | Glossary On
Versions: 1 2 3 4 5 6 7 8 9 10 11 12 13
000
FTUS45 KMSO 281720
TAFGPI
TAF
KGPI 281720Z 2818/2918 01016KT P6SM VCSH OVC040
     FM281900 04015G25KT 4SM BLSN OVC025
     FM282300 03030G40KT 1SM BLSN OVC015
     FM290600 02020G30KT 2SM BLSN OVC020=

USA.gov is the U.S. government's official web portal to all federal, state and local government web resources and services.